createdAt,value
2019-01-09T00:00:47.100Z,21.90
2019-01-09T00:03:16.481Z,19.60
2019-01-09T00:05:45.811Z,18.43
2019-01-09T00:08:15.149Z,19.80
2019-01-09T00:10:44.603Z,18.37
2019-01-09T00:13:13.953Z,18.17
2019-01-09T00:15:43.299Z,26.83
2019-01-09T00:18:12.638Z,30.07
2019-01-09T00:20:42.010Z,20.43
2019-01-09T00:23:11.349Z,17.93
2019-01-09T00:25:40.715Z,22.23
2019-01-09T00:28:10.057Z,18.37
2019-01-09T00:30:39.425Z,23.43
2019-01-09T00:33:08.898Z,22.53
2019-01-09T00:35:38.244Z,23.23
2019-01-09T00:38:07.590Z,22.13
2019-01-09T00:40:36.957Z,27.77
2019-01-09T00:43:06.333Z,25.53
2019-01-09T00:45:35.671Z,18.03
2019-01-09T00:48:05.148Z,24.57
2019-01-09T00:50:34.505Z,18.93
2019-01-09T00:53:03.844Z,29.83
2019-01-09T00:55:33.238Z,19.53
2019-01-09T00:58:02.817Z,23.97
2019-01-09T01:00:32.189Z,16.60
2019-01-09T01:03:18.494Z,17.50
2019-01-09T01:06:34.467Z,21.33
2019-01-09T01:09:53.830Z,19.23
2019-01-09T01:12:50.507Z,26.80
2019-01-09T01:16:12.272Z,19.77
2019-01-09T01:19:25.307Z,19.00
2019-01-09T01:22:00.296Z,17.40
2019-01-09T01:25:02.912Z,15.17
2019-01-09T01:27:55.106Z,22.90
2019-01-09T01:31:03.221Z,13.20
2019-01-09T01:34:18.743Z,20.57
2019-01-09T01:37:31.909Z,16.97
2019-01-09T01:40:47.530Z,18.23
2019-01-09T01:43:28.454Z,18.90
2019-01-09T01:46:37.055Z,21.43
2019-01-09T01:49:35.765Z,19.53
2019-01-09T01:52:58.396Z,19.63
2019-01-09T01:56:04.185Z,17.57
2019-01-09T01:59:20.413Z,18.43
2019-01-09T02:02:19.770Z,13.63
2019-01-09T02:05:27.189Z,12.60
2019-01-09T02:08:23.596Z,21.37
2019-01-09T02:11:30.298Z,20.27
2019-01-09T02:14:40.538Z,15.77
2019-01-09T02:17:41.796Z,22.17
2019-01-09T02:20:46.585Z,19.73
2019-01-09T02:24:01.116Z,16.23
2019-01-09T02:27:04.171Z,13.30
2019-01-09T02:30:02.723Z,17.13
2019-01-09T02:32:33.000Z,20.10
2019-01-09T02:35:02.441Z,19.57
2019-01-09T02:37:31.831Z,17.33
2019-01-09T02:40:01.195Z,15.13
2019-01-09T02:42:30.549Z,19.40
2019-01-09T02:44:59.933Z,13.67
2019-01-09T02:47:29.295Z,16.50
2019-01-09T02:49:58.801Z,18.37
2019-01-09T02:52:28.183Z,15.43
2019-01-09T02:54:57.516Z,17.40
2019-01-09T02:57:26.887Z,18.90
2019-01-09T02:59:56.265Z,16.83
2019-01-09T03:02:25.614Z,13.93
2019-01-09T03:04:54.973Z,14.80
2019-01-09T03:07:26.378Z,17.37
2019-01-09T03:09:55.743Z,14.07
2019-01-09T03:12:25.079Z,13.97
2019-01-09T03:14:54.653Z,15.03
2019-01-09T03:17:24.005Z,14.93
2019-01-09T03:19:53.344Z,12.67
2019-01-09T03:22:22.704Z,13.27
2019-01-09T03:24:52.060Z,12.47
2019-01-09T03:27:21.394Z,13.67
2019-01-09T03:29:50.739Z,11.97
2019-01-09T03:32:20.092Z,14.40
2019-01-09T03:34:49.452Z,19.77
2019-01-09T03:37:18.821Z,14.60
2019-01-09T03:39:48.204Z,12.77
2019-01-09T03:42:17.654Z,16.10
2019-01-09T03:44:46.992Z,18.03
2019-01-09T03:47:16.383Z,15.73
2019-01-09T03:49:45.726Z,11.73
2019-01-09T03:52:15.094Z,12.73
2019-01-09T03:54:44.490Z,14.93
2019-01-09T03:57:13.834Z,13.80
2019-01-09T03:59:43.175Z,13.93
2019-01-09T04:02:12.534Z,12.57
2019-01-09T04:04:41.883Z,15.93
2019-01-09T04:07:11.246Z,16.23
2019-01-09T04:09:40.614Z,18.53
2019-01-09T04:12:09.994Z,14.63
2019-01-09T04:14:39.338Z,15.23
2019-01-09T04:17:08.681Z,11.57
2019-01-09T04:19:38.057Z,14.27
2019-01-09T04:22:07.401Z,12.07
2019-01-09T04:24:36.764Z,18.10
2019-01-09T04:27:06.108Z,15.77
2019-01-09T04:29:35.462Z,15.10
2019-01-09T04:32:04.807Z,19.00
2019-01-09T04:34:34.161Z,14.63
2019-01-09T04:37:03.522Z,13.87
2019-01-09T04:39:32.881Z,17.03
2019-01-09T04:42:02.236Z,17.63
2019-01-09T04:44:31.574Z,15.93
2019-01-09T04:47:00.929Z,14.93
2019-01-09T04:49:30.273Z,19.30
2019-01-09T04:51:59.688Z,12.00
2019-01-09T04:54:29.071Z,13.43
2019-01-09T04:56:58.450Z,20.17
2019-01-09T04:59:27.855Z,16.37
2019-01-09T05:01:57.199Z,18.57
2019-01-09T05:04:26.525Z,19.53
2019-01-09T05:07:00.544Z,13.63
2019-01-09T05:09:26.975Z,9.77
2019-01-09T05:11:56.311Z,14.70
2019-01-09T05:14:25.667Z,15.50
2019-01-09T05:16:55.056Z,12.53
2019-01-09T05:19:24.415Z,18.10
2019-01-09T05:21:53.787Z,15.73
2019-01-09T05:24:23.130Z,15.43
2019-01-09T05:26:52.547Z,17.00
2019-01-09T05:29:21.916Z,16.70
2019-01-09T05:31:51.283Z,17.00
2019-01-09T05:34:20.629Z,13.93
2019-01-09T05:36:49.985Z,15.73
2019-01-09T05:39:19.346Z,13.57
2019-01-09T05:41:48.707Z,14.37
2019-01-09T05:44:18.075Z,14.30
2019-01-09T05:46:47.421Z,17.77
2019-01-09T05:49:16.776Z,13.73
2019-01-09T05:51:46.144Z,19.30
2019-01-09T05:54:15.505Z,20.40
2019-01-09T05:56:44.863Z,23.80
2019-01-09T05:59:14.215Z,17.00
2019-01-09T06:01:43.575Z,23.30
2019-01-09T06:04:12.911Z,25.20
2019-01-09T06:06:42.260Z,17.83
2019-01-09T06:09:11.625Z,12.33
2019-01-09T06:11:40.972Z,13.47
2019-01-09T06:14:10.291Z,9.60
2019-01-09T06:16:39.635Z,23.13
2019-01-09T06:19:08.994Z,14.83
2019-01-09T06:21:38.328Z,14.43
2019-01-09T06:24:07.715Z,16.47
2019-01-09T06:26:37.083Z,17.87
2019-01-09T06:29:06.429Z,18.63
2019-01-09T06:31:35.817Z,12.00
2019-01-09T06:34:05.190Z,18.63
2019-01-09T06:36:34.604Z,19.83
2019-01-09T06:39:04.644Z,19.37
2019-01-09T06:41:33.979Z,16.27
2019-01-09T06:44:03.362Z,17.40
2019-01-09T06:46:32.705Z,12.23
2019-01-09T06:49:02.079Z,16.03
2019-01-09T06:51:31.439Z,21.03
2019-01-09T06:54:00.819Z,25.90
2019-01-09T06:56:30.154Z,17.93
2019-01-09T06:58:59.513Z,13.03
2019-01-09T07:01:28.872Z,15.50
2019-01-09T07:03:58.226Z,16.67
2019-01-09T07:06:27.598Z,30.03
2019-01-09T07:08:56.956Z,15.47
2019-01-09T07:11:26.356Z,17.73
2019-01-09T07:13:55.706Z,17.10
2019-01-09T07:16:25.033Z,13.73
2019-01-09T07:18:54.408Z,18.00
2019-01-09T07:21:23.746Z,9.67
2019-01-09T07:23:53.098Z,20.80
2019-01-09T07:26:22.431Z,12.23
2019-01-09T07:28:51.819Z,17.13
2019-01-09T07:31:21.259Z,17.63
2019-01-09T07:33:50.604Z,14.47
2019-01-09T07:36:19.960Z,13.47
2019-01-09T07:38:49.320Z,19.23
2019-01-09T07:41:18.674Z,14.47
2019-01-09T07:43:48.033Z,17.37
2019-01-09T07:46:17.456Z,14.77
2019-01-09T07:48:46.819Z,22.47
2019-01-09T07:51:16.176Z,20.67
2019-01-09T07:53:45.547Z,22.53
2019-01-09T07:56:14.904Z,14.77
2019-01-09T07:58:44.248Z,15.60
2019-01-09T08:01:13.604Z,16.50
2019-01-09T08:03:42.933Z,18.33
2019-01-09T08:06:12.304Z,17.17
2019-01-09T08:08:41.652Z,12.63
2019-01-09T08:11:11.004Z,17.60
2019-01-09T08:13:40.365Z,21.53
2019-01-09T08:16:09.694Z,13.53
2019-01-09T08:18:39.054Z,13.30
2019-01-09T08:21:08.419Z,22.27
2019-01-09T08:23:37.800Z,14.87
2019-01-09T08:26:07.157Z,17.40
2019-01-09T08:28:36.521Z,22.93
2019-01-09T08:31:05.860Z,18.00
2019-01-09T08:33:35.212Z,12.80
2019-01-09T08:36:04.561Z,14.87
2019-01-09T08:38:33.929Z,13.93
2019-01-09T08:41:03.312Z,11.63
2019-01-09T08:43:32.677Z,16.37
2019-01-09T08:46:02.044Z,18.40
2019-01-09T08:48:31.395Z,17.65
2019-01-09T08:51:01.362Z,17.70
2019-01-09T08:53:30.694Z,20.43
2019-01-09T08:56:00.108Z,16.17
2019-01-09T08:58:29.512Z,18.07
2019-01-09T09:00:58.882Z,20.75
2019-01-09T09:03:28.251Z,16.67
2019-01-09T09:05:57.599Z,20.12
2019-01-09T09:08:28.303Z,15.03
2019-01-09T09:10:57.655Z,20.03
2019-01-09T09:13:38.300Z,12.93
2019-01-09T09:16:09.214Z,19.37
2019-01-09T09:18:38.588Z,16.00
2019-01-09T09:21:07.942Z,17.80
2019-01-09T09:23:37.299Z,18.80
2019-01-09T09:26:06.895Z,20.32
2019-01-09T09:28:36.264Z,20.62
2019-01-09T09:31:05.865Z,17.87
2019-01-09T09:33:35.234Z,21.27
2019-01-09T09:36:04.720Z,24.77
2019-01-09T09:38:34.099Z,16.47
2019-01-09T09:41:03.463Z,26.03
2019-01-09T09:43:32.817Z,27.75
2019-01-09T09:46:02.189Z,16.07
2019-01-09T09:48:31.591Z,14.63
2019-01-09T09:51:00.960Z,17.20
2019-01-09T09:53:30.328Z,13.80
2019-01-09T09:55:59.747Z,20.13
2019-01-09T09:58:29.150Z,13.70
2019-01-09T10:00:58.499Z,20.82
2019-01-09T10:03:27.879Z,16.07
2019-01-09T10:05:57.222Z,10.37
2019-01-09T10:08:29.572Z,20.32
2019-01-09T10:10:57.759Z,19.63
2019-01-09T10:13:27.189Z,17.73
2019-01-09T10:15:56.554Z,10.77
2019-01-09T10:18:25.909Z,11.93
2019-01-09T10:20:55.294Z,10.53
2019-01-09T10:23:24.652Z,14.10
2019-01-09T10:25:54.020Z,11.13
2019-01-09T10:28:23.375Z,7.73
2019-01-09T10:30:52.746Z,12.77
2019-01-09T10:33:22.146Z,17.60
2019-01-09T10:35:51.505Z,11.97
2019-01-09T10:38:20.856Z,12.63
2019-01-09T10:40:50.229Z,11.70
2019-01-09T10:43:19.569Z,12.40
2019-01-09T10:45:48.910Z,16.40
2019-01-09T10:48:18.278Z,17.40
2019-01-09T10:50:49.075Z,12.80
2019-01-09T10:53:18.450Z,12.23
2019-01-09T10:55:47.858Z,9.97
2019-01-09T10:58:17.217Z,8.63
2019-01-09T11:00:46.559Z,11.87
2019-01-09T11:03:15.925Z,14.63
2019-01-09T11:05:45.265Z,10.67
2019-01-09T11:08:14.625Z,11.10
2019-01-09T11:10:43.975Z,15.23
2019-01-09T11:13:13.314Z,15.63
2019-01-09T11:15:42.685Z,8.20
2019-01-09T11:18:12.057Z,13.27
2019-01-09T11:20:41.408Z,8.60
2019-01-09T11:23:10.838Z,10.13
2019-01-09T11:25:40.189Z,11.20
2019-01-09T11:28:09.543Z,14.63
2019-01-09T11:30:38.915Z,9.83
2019-01-09T11:33:08.265Z,13.73
2019-01-09T11:35:37.598Z,13.63
2019-01-09T11:38:06.978Z,10.23
2019-01-09T11:40:36.341Z,12.87
2019-01-09T11:43:05.681Z,10.87
2019-01-09T11:45:35.051Z,9.57
2019-01-09T11:48:04.535Z,15.20
2019-01-09T11:50:33.952Z,11.77
2019-01-09T11:53:03.308Z,7.13
2019-01-09T11:55:32.671Z,14.30
2019-01-09T11:58:28.827Z,7.47
2019-01-09T12:00:58.342Z,12.27
2019-01-09T12:03:27.810Z,13.40
2019-01-09T12:05:57.146Z,9.57
2019-01-09T12:08:26.778Z,7.40
2019-01-09T12:10:57.514Z,12.27
2019-01-09T12:13:28.132Z,9.30
2019-01-09T12:15:57.485Z,9.17
2019-01-09T12:18:26.844Z,7.43
2019-01-09T12:20:56.207Z,9.70
2019-01-09T12:23:25.545Z,8.53
2019-01-09T12:25:54.883Z,5.30
2019-01-09T12:28:24.251Z,9.27
2019-01-09T12:30:55.058Z,11.97
2019-01-09T12:33:25.806Z,8.17
2019-01-09T12:35:55.159Z,13.37
2019-01-09T12:38:24.552Z,10.67
2019-01-09T12:40:54.018Z,7.87
2019-01-09T12:43:23.380Z,8.13
2019-01-09T12:45:52.842Z,10.20
2019-01-09T12:48:22.254Z,6.30
2019-01-09T12:50:51.593Z,11.33
2019-01-09T12:53:20.958Z,13.77
2019-01-09T12:55:50.298Z,8.77
2019-01-09T12:58:19.831Z,13.37
2019-01-09T13:00:49.187Z,5.93
2019-01-09T13:03:18.551Z,7.50
2019-01-09T13:05:47.962Z,9.13
2019-01-09T13:08:17.324Z,7.50
2019-01-09T13:10:46.704Z,9.57
2019-01-09T13:13:16.183Z,10.23
2019-01-09T13:15:46.536Z,8.60
2019-01-09T13:18:15.869Z,8.40
2019-01-09T13:20:48.336Z,9.30
2019-01-09T13:23:17.993Z,10.17
2019-01-09T13:25:47.353Z,7.13
2019-01-09T13:28:18.417Z,7.50
2019-01-09T13:30:47.988Z,10.33
2019-01-09T13:33:17.325Z,9.07
2019-01-09T13:35:47.829Z,13.10
2019-01-09T13:38:17.214Z,12.90
2019-01-09T13:40:47.732Z,6.43
2019-01-09T13:43:18.276Z,7.17
2019-01-09T13:45:49.452Z,7.37
2019-01-09T13:48:18.795Z,11.80
2019-01-09T13:51:09.583Z,6.13
2019-01-09T13:53:39.079Z,11.63
2019-01-09T13:56:12.032Z,4.67
2019-01-09T13:58:41.520Z,13.53
2019-01-09T14:01:12.310Z,6.17
2019-01-09T14:03:41.768Z,11.63
2019-01-09T14:06:11.177Z,11.13
2019-01-09T14:08:40.544Z,8.07
2019-01-09T14:11:09.905Z,8.10
2019-01-09T14:13:39.241Z,8.67
2019-01-09T14:16:08.610Z,7.60
2019-01-09T14:18:37.952Z,5.20
2019-01-09T14:21:08.413Z,6.97
2019-01-09T14:23:37.848Z,3.33
2019-01-09T14:26:07.456Z,9.07
2019-01-09T14:28:36.793Z,7.77
2019-01-09T14:31:07.718Z,4.53
2019-01-09T14:33:38.089Z,3.93
2019-01-09T14:36:08.458Z,7.70
2019-01-09T14:38:39.000Z,5.87
2019-01-09T14:41:11.284Z,5.77
2019-01-09T14:43:40.640Z,6.40
2019-01-09T14:46:10.074Z,6.03
2019-01-09T14:48:39.434Z,5.80
2019-01-09T14:51:08.769Z,4.23
2019-01-09T14:53:38.146Z,3.73
2019-01-09T14:56:07.523Z,6.17
2019-01-09T14:58:36.876Z,6.23
2019-01-09T15:01:06.304Z,4.57
2019-01-09T15:03:35.740Z,4.40
2019-01-09T15:06:05.207Z,7.53
2019-01-09T15:08:34.523Z,5.67
2019-01-09T15:11:03.885Z,5.63
2019-01-09T15:13:33.226Z,7.53
2019-01-09T15:16:02.679Z,4.53
2019-01-09T15:18:31.974Z,7.10
2019-01-09T15:21:01.341Z,6.27
2019-01-09T15:23:30.768Z,5.93
2019-01-09T15:26:00.086Z,6.60
2019-01-09T15:28:29.445Z,8.67
2019-01-09T15:30:58.806Z,11.60
2019-01-09T15:33:28.168Z,7.53
2019-01-09T15:35:57.490Z,6.60
2019-01-09T15:38:26.843Z,3.27
2019-01-09T15:40:56.230Z,4.23
2019-01-09T15:43:25.553Z,4.27
2019-01-09T15:45:54.924Z,2.73
2019-01-09T15:48:24.283Z,12.43
2019-01-09T15:50:53.690Z,5.83
2019-01-09T15:53:23.025Z,5.33
2019-01-09T15:55:52.440Z,6.13
2019-01-09T15:58:21.798Z,5.77
2019-01-09T16:00:54.370Z,9.30
2019-01-09T16:03:26.315Z,3.53
2019-01-09T16:05:55.883Z,8.10
2019-01-09T16:08:25.256Z,8.63
2019-01-09T16:10:54.599Z,10.43
2019-01-09T16:13:24.050Z,9.33
2019-01-09T16:15:53.385Z,6.53
2019-01-09T16:18:23.226Z,6.30
2019-01-09T16:20:52.761Z,5.73
2019-01-09T16:23:22.196Z,9.67
2019-01-09T16:25:51.593Z,10.97
2019-01-09T16:28:20.959Z,10.03
2019-01-09T16:31:23.349Z,15.30
2019-01-09T16:33:52.715Z,11.47
2019-01-09T16:36:22.088Z,10.63
2019-01-09T16:38:51.422Z,8.90
2019-01-09T16:41:20.776Z,11.23
2019-01-09T16:43:50.148Z,15.87
2019-01-09T16:46:19.970Z,16.60
2019-01-09T16:48:49.419Z,23.13
2019-01-09T16:51:18.772Z,19.63
2019-01-09T16:53:48.180Z,6.50
2019-01-09T16:56:17.651Z,7.73
2019-01-09T16:58:46.986Z,16.67
2019-01-09T17:01:16.488Z,13.67
2019-01-09T17:03:45.956Z,17.60
2019-01-09T17:06:15.303Z,9.63
2019-01-09T17:08:44.655Z,15.00
2019-01-09T17:11:14.398Z,21.00
2019-01-09T17:13:43.763Z,25.57
2019-01-09T17:16:13.125Z,41.57
2019-01-09T17:18:42.485Z,40.20
2019-01-09T17:21:12.027Z,34.30
2019-01-09T17:23:41.650Z,35.67
2019-01-09T17:26:11.188Z,36.57
2019-01-09T17:28:40.559Z,54.23
2019-01-09T17:31:10.022Z,38.87
2019-01-09T17:33:39.363Z,46.07
2019-01-09T17:36:08.795Z,47.77
2019-01-09T17:38:38.159Z,28.73
2019-01-09T17:41:07.611Z,35.07
2019-01-09T17:43:36.983Z,34.93
2019-01-09T17:46:06.417Z,26.90
2019-01-09T17:48:35.817Z,19.05
2019-01-09T17:51:05.281Z,15.73
2019-01-09T17:53:34.646Z,15.10
2019-01-09T17:56:04.054Z,11.97
2019-01-09T17:58:33.674Z,11.87
2019-01-09T18:01:03.029Z,10.17
2019-01-09T18:03:32.391Z,8.83
2019-01-09T18:06:01.746Z,8.07
2019-01-09T18:08:31.207Z,10.23
2019-01-09T18:11:00.561Z,14.27
2019-01-09T18:13:29.949Z,18.50
2019-01-09T18:15:59.290Z,16.03
2019-01-09T18:18:28.657Z,14.27
2019-01-09T18:20:58.059Z,16.63
2019-01-09T18:23:27.393Z,19.57
2019-01-09T18:25:56.793Z,15.03
2019-01-09T18:28:26.153Z,14.93
2019-01-09T18:31:20.911Z,11.65
2019-01-09T18:34:01.981Z,10.20
2019-01-09T18:36:59.178Z,10.57
2019-01-09T18:40:09.376Z,27.73
2019-01-09T18:43:21.472Z,35.70
2019-01-09T18:46:42.253Z,9.47
2019-01-09T18:49:53.077Z,10.27
2019-01-09T18:52:31.266Z,8.13
2019-01-09T18:55:00.768Z,12.45
2019-01-09T18:57:30.343Z,9.80
2019-01-09T18:59:59.827Z,13.32
2019-01-09T19:02:29.190Z,11.35
2019-01-09T19:04:58.585Z,15.33
2019-01-09T19:07:27.949Z,18.17
2019-01-09T19:09:57.346Z,20.97
2019-01-09T19:12:26.723Z,26.87
2019-01-09T19:14:57.500Z,27.85
2019-01-09T19:17:26.854Z,26.45
2019-01-09T19:19:57.289Z,21.33
2019-01-09T19:22:26.680Z,27.02
2019-01-09T19:24:57.505Z,19.73
2019-01-09T19:27:26.877Z,20.35
2019-01-09T19:29:56.272Z,27.05
2019-01-09T19:32:25.664Z,42.70
2019-01-09T19:34:55.047Z,35.78
2019-01-09T19:37:24.454Z,18.85
2019-01-09T19:39:53.994Z,19.40
2019-01-09T19:42:27.631Z,19.37
2019-01-09T19:44:57.028Z,22.65
2019-01-09T19:47:26.430Z,21.80
2019-01-09T19:49:55.905Z,24.92
2019-01-09T19:52:25.301Z,20.30
2019-01-09T19:54:54.707Z,16.42
2019-01-09T19:57:24.229Z,16.70
2019-01-09T19:59:53.603Z,23.45
2019-01-09T20:02:22.988Z,23.87
2019-01-09T20:04:52.458Z,27.30
2019-01-09T20:07:22.924Z,23.12
2019-01-09T20:09:52.295Z,15.85
2019-01-09T20:12:21.758Z,15.23
2019-01-09T20:14:51.361Z,15.00
2019-01-09T20:17:20.739Z,21.10
2019-01-09T20:19:50.197Z,15.10
2019-01-09T20:22:19.791Z,19.45
2019-01-09T20:24:49.311Z,15.53
2019-01-09T20:27:20.565Z,18.48
2019-01-09T20:29:50.071Z,19.35
2019-01-09T20:32:19.654Z,18.02
2019-01-09T20:34:49.236Z,20.00
2019-01-09T20:37:18.668Z,18.40
2019-01-09T20:39:48.037Z,18.82
2019-01-09T20:42:17.458Z,31.52
2019-01-09T20:44:54.264Z,52.03
2019-01-09T20:47:28.220Z,35.55
2019-01-09T20:49:58.580Z,27.52
2019-01-09T20:52:32.209Z,30.55
2019-01-09T20:55:01.759Z,22.90
2019-01-09T20:57:31.241Z,23.70
2019-01-09T21:00:00.735Z,23.18
2019-01-09T21:02:30.141Z,22.70
2019-01-09T21:04:59.690Z,21.87
2019-01-09T21:07:29.118Z,23.10
2019-01-09T21:09:58.653Z,16.02
2019-01-09T21:12:28.025Z,24.65
2019-01-09T21:14:57.403Z,27.98
2019-01-09T21:17:26.830Z,21.02
2019-01-09T21:19:56.186Z,21.62
2019-01-09T21:22:25.878Z,21.55
2019-01-09T21:24:55.288Z,20.40
2019-01-09T21:27:25.996Z,21.35
2019-01-09T21:29:55.772Z,25.65
2019-01-09T21:32:25.185Z,21.50
2019-01-09T21:34:54.586Z,23.77
2019-01-09T21:37:24.053Z,16.85
2019-01-09T21:39:53.773Z,14.68
2019-01-09T21:42:23.166Z,16.55
2019-01-09T21:44:52.741Z,19.50
2019-01-09T21:47:22.164Z,17.82
2019-01-09T21:49:51.548Z,16.20
2019-01-09T21:52:21.039Z,16.60
2019-01-09T21:54:50.465Z,15.90
2019-01-09T21:57:19.889Z,18.70
2019-01-09T21:59:49.541Z,19.65
2019-01-09T22:02:19.172Z,14.85
2019-01-09T22:04:48.553Z,19.67
2019-01-09T22:07:19.401Z,14.98
2019-01-09T22:09:48.773Z,20.48
2019-01-09T22:12:20.129Z,13.98
2019-01-09T22:14:49.527Z,13.80
2019-01-09T22:17:19.218Z,13.78
2019-01-09T22:19:48.616Z,19.07
2019-01-09T22:22:18.354Z,15.30
2019-01-09T22:24:47.829Z,14.25
2019-01-09T22:27:17.164Z,14.63
2019-01-09T22:29:46.654Z,15.03
2019-01-09T22:32:17.663Z,15.30
2019-01-09T22:34:47.276Z,18.67
2019-01-09T22:37:16.639Z,18.65
2019-01-09T22:39:47.064Z,18.90
2019-01-09T22:42:16.421Z,15.63
2019-01-09T22:44:45.782Z,13.22
2019-01-09T22:47:15.183Z,13.38
2019-01-09T22:49:44.604Z,25.10
2019-01-09T22:52:13.958Z,19.00
2019-01-09T22:54:43.389Z,18.57
2019-01-09T22:57:12.742Z,25.05
2019-01-09T22:59:42.157Z,17.50
2019-01-09T23:02:13.877Z,17.87
2019-01-09T23:04:44.254Z,12.75
2019-01-09T23:07:13.623Z,11.05
2019-01-09T23:09:43.013Z,12.73
2019-01-09T23:12:20.822Z,13.35
2019-01-09T23:14:43.610Z,14.73
2019-01-09T23:17:12.964Z,12.98
2019-01-09T23:19:44.757Z,15.75
2019-01-09T23:22:14.238Z,29.05
2019-01-09T23:24:43.629Z,21.77
2019-01-09T23:27:12.978Z,21.07
2019-01-09T23:29:42.466Z,13.18
2019-01-09T23:32:11.834Z,12.43
2019-01-09T23:34:41.176Z,13.32
2019-01-09T23:37:10.543Z,11.05
2019-01-09T23:39:39.909Z,10.50
2019-01-09T23:42:09.249Z,8.40
2019-01-09T23:44:38.724Z,9.88
2019-01-09T23:47:08.076Z,16.93
2019-01-09T23:49:39.941Z,9.30
2019-01-09T23:52:09.280Z,11.48
2019-01-09T23:54:38.625Z,13.85
2019-01-09T23:57:07.991Z,9.08
2019-01-09T23:59:37.381Z,9.23
